createdAt,value
2018-10-19T00:02:03.998Z,27.90
2018-10-19T00:04:30.958Z,26.57
2018-10-19T00:06:57.911Z,28.17
2018-10-19T00:09:24.884Z,28.23
2018-10-19T00:11:51.828Z,27.60
2018-10-19T00:14:18.771Z,27.20
2018-10-19T00:16:46.535Z,27.87
2018-10-19T00:19:13.499Z,26.42
2018-10-19T00:21:40.491Z,27.15
2018-10-19T00:24:07.433Z,28.73
2018-10-19T00:26:34.438Z,28.00
2018-10-19T00:29:01.416Z,28.73
2018-10-19T00:31:28.323Z,28.70
2018-10-19T00:33:55.270Z,28.55
2018-10-19T00:36:22.241Z,28.60
2018-10-19T00:38:49.214Z,29.50
2018-10-19T00:41:16.241Z,29.98
2018-10-19T00:43:43.126Z,30.23
2018-10-19T00:46:10.076Z,30.85
2018-10-19T00:48:37.047Z,30.62
2018-10-19T00:51:04.140Z,31.05
2018-10-19T00:53:31.022Z,32.30
2018-10-19T00:55:57.994Z,32.67
2018-10-19T00:58:25.246Z,32.90
2018-10-19T01:00:52.198Z,33.28
2018-10-19T01:03:19.171Z,33.70
2018-10-19T01:05:46.122Z,33.38
2018-10-19T01:08:13.054Z,34.33
2018-10-19T01:10:40.011Z,34.13
2018-10-19T01:13:06.954Z,34.63
2018-10-19T01:15:33.920Z,34.10
2018-10-19T01:18:01.267Z,33.23
2018-10-19T01:20:28.254Z,35.23
2018-10-19T01:22:55.285Z,34.08
2018-10-19T01:25:22.290Z,33.65
2018-10-19T01:27:49.569Z,31.87
2018-10-19T01:30:16.530Z,32.63
2018-10-19T01:32:43.482Z,32.83
2018-10-19T01:35:11.659Z,32.00
2018-10-19T01:37:38.705Z,31.73
2018-10-19T01:40:18.587Z,31.65
2018-10-19T01:42:45.534Z,31.35
2018-10-19T01:45:12.908Z,31.68
2018-10-19T01:47:40.644Z,30.92
2018-10-19T01:50:08.489Z,32.08
2018-10-19T01:52:35.418Z,32.08
2018-10-19T01:55:02.371Z,30.77
2018-10-19T01:57:29.299Z,29.95
2018-10-19T01:59:56.238Z,33.18
2018-10-19T02:02:23.181Z,31.13
2018-10-19T02:04:50.134Z,30.43
2018-10-19T02:07:17.093Z,30.23
2018-10-19T02:09:44.043Z,30.00
2018-10-19T02:12:10.999Z,30.65
2018-10-19T02:14:38.387Z,30.53
2018-10-19T02:17:05.670Z,30.82
2018-10-19T02:19:33.167Z,31.23
2018-10-19T02:22:00.102Z,30.60
2018-10-19T02:24:27.057Z,31.67
2018-10-19T02:26:54.060Z,31.35
2018-10-19T02:29:20.994Z,30.40
2018-10-19T02:31:48.066Z,30.15
2018-10-19T02:34:15.057Z,31.13
2018-10-19T02:36:42.450Z,30.23
2018-10-19T02:39:09.464Z,29.90
2018-10-19T02:41:43.047Z,31.23
2018-10-19T02:44:09.986Z,30.55
2018-10-19T02:46:36.938Z,31.00
2018-10-19T02:49:04.752Z,31.48
2018-10-19T02:51:31.720Z,31.55
2018-10-19T02:53:58.673Z,30.15
2018-10-19T02:56:25.633Z,31.05
2018-10-19T02:58:52.593Z,29.87
2018-10-19T03:01:19.531Z,30.25
2018-10-19T03:03:46.496Z,30.50
2018-10-19T03:06:13.462Z,30.90
2018-10-19T03:08:40.420Z,31.00
2018-10-19T03:11:07.761Z,31.20
2018-10-19T03:13:34.691Z,33.08
2018-10-19T03:16:01.655Z,37.40
2018-10-19T03:18:28.578Z,39.97
2018-10-19T03:20:56.024Z,38.90
2018-10-19T03:23:22.937Z,36.30
2018-10-19T03:25:49.881Z,36.23
2018-10-19T03:28:16.850Z,35.98
2018-10-19T03:30:43.827Z,34.92
2018-10-19T03:33:10.751Z,34.35
2018-10-19T03:35:37.714Z,36.00
2018-10-19T03:38:05.064Z,35.03
2018-10-19T03:40:32.017Z,35.03
2018-10-19T03:42:58.981Z,36.10
2018-10-19T03:45:26.055Z,36.93
2018-10-19T03:47:52.998Z,40.23
2018-10-19T03:50:19.959Z,39.80
2018-10-19T03:52:46.886Z,39.30
2018-10-19T03:55:13.833Z,37.85
2018-10-19T03:57:40.809Z,37.88
2018-10-19T04:00:07.787Z,36.85
2018-10-19T04:02:34.714Z,36.03
2018-10-19T04:05:01.673Z,35.77
2018-10-19T04:07:28.666Z,34.20
2018-10-19T04:09:55.624Z,34.92
2018-10-19T04:12:22.579Z,33.60
2018-10-19T04:14:49.515Z,37.03
2018-10-19T04:17:16.475Z,37.65
2018-10-19T04:19:43.441Z,36.90
2018-10-19T04:22:10.639Z,36.65
2018-10-19T04:24:37.589Z,37.42
2018-10-19T04:27:05.027Z,38.60
2018-10-19T04:29:31.910Z,37.07
2018-10-19T04:31:58.858Z,37.28
2018-10-19T04:34:25.822Z,40.95
2018-10-19T04:36:59.465Z,41.45
2018-10-19T04:39:26.419Z,42.50
2018-10-19T04:41:53.437Z,45.15
2018-10-19T04:44:20.334Z,44.63
2018-10-19T04:46:47.289Z,42.60
2018-10-19T04:49:14.250Z,41.37
2018-10-19T04:51:41.225Z,39.03
2018-10-19T04:54:08.169Z,38.98
2018-10-19T04:56:35.110Z,40.53
2018-10-19T04:59:02.092Z,39.98
2018-10-19T05:01:29.006Z,39.08
2018-10-19T05:03:55.968Z,40.73
2018-10-19T05:06:22.952Z,40.03
2018-10-19T05:08:49.851Z,40.50
2018-10-19T05:11:16.901Z,39.92
2018-10-19T05:13:43.780Z,40.60
2018-10-19T05:16:10.702Z,39.08
2018-10-19T05:18:37.658Z,38.90
2018-10-19T05:21:04.614Z,38.35
2018-10-19T05:23:32.274Z,38.70
2018-10-19T05:25:59.251Z,37.88
2018-10-19T05:28:26.187Z,38.55
2018-10-19T05:30:53.156Z,57.27
2018-10-19T05:33:20.126Z,54.73
2018-10-19T05:35:47.074Z,56.18
2018-10-19T05:38:14.057Z,43.15
2018-10-19T05:40:41.054Z,46.25
2018-10-19T05:43:08.002Z,53.63
2018-10-19T05:45:34.962Z,42.98
2018-10-19T05:48:01.933Z,59.13
2018-10-19T05:50:28.880Z,39.88
2018-10-19T05:52:55.822Z,37.53
2018-10-19T05:55:22.854Z,38.38
2018-10-19T05:57:49.790Z,37.85
2018-10-19T06:00:16.747Z,36.80
2018-10-19T06:02:43.811Z,35.92
2018-10-19T06:05:10.748Z,37.25
2018-10-19T06:07:37.654Z,37.83
2018-10-19T06:10:05.285Z,37.85
2018-10-19T06:12:32.242Z,37.33
2018-10-19T06:14:59.178Z,38.88
2018-10-19T06:17:26.122Z,36.97
2018-10-19T06:19:53.068Z,38.23
2018-10-19T06:22:20.026Z,37.63
2018-10-19T06:24:47.599Z,37.45
2018-10-19T06:27:14.564Z,55.95
2018-10-19T06:29:41.505Z,67.97
2018-10-19T06:34:35.433Z,34.70
2018-10-19T06:37:02.389Z,35.73
2018-10-19T06:39:29.375Z,34.73
2018-10-19T06:41:56.327Z,34.73
2018-10-19T06:44:23.269Z,33.83
2018-10-19T06:46:50.307Z,35.68
2018-10-19T06:49:17.197Z,34.85
2018-10-19T06:51:44.177Z,34.35
2018-10-19T06:54:11.126Z,35.10
2018-10-19T06:56:38.063Z,34.67
2018-10-19T06:59:05.076Z,34.75
2018-10-19T07:01:31.982Z,33.70
2018-10-19T07:03:58.927Z,34.80
2018-10-19T07:06:25.867Z,35.70
2018-10-19T07:08:52.826Z,35.03
2018-10-19T07:11:19.775Z,34.30
2018-10-19T07:13:46.722Z,36.00
2018-10-19T07:16:13.693Z,33.80
2018-10-19T07:18:40.629Z,34.40
2018-10-19T07:21:07.612Z,34.10
2018-10-19T07:23:34.571Z,36.10
2018-10-19T07:26:02.168Z,34.23
2018-10-19T07:28:29.101Z,39.42
2018-10-19T07:30:56.070Z,40.83
2018-10-19T07:33:23.013Z,39.58
2018-10-19T07:35:49.969Z,43.68
2018-10-19T07:38:17.047Z,44.10
2018-10-19T07:40:43.865Z,36.25
2018-10-19T07:43:10.818Z,35.90
2018-10-19T07:45:37.802Z,41.08
2018-10-19T07:48:04.929Z,37.48
2018-10-19T07:50:31.678Z,38.28
2018-10-19T07:52:58.659Z,39.90
2018-10-19T07:55:25.582Z,37.80
2018-10-19T07:57:52.526Z,38.48
2018-10-19T08:00:19.547Z,39.50
2018-10-19T08:02:46.481Z,36.30
2018-10-19T08:05:13.510Z,34.10
2018-10-19T08:07:40.430Z,33.63
2018-10-19T08:10:08.494Z,34.23
2018-10-19T08:12:35.468Z,36.95
2018-10-19T08:15:02.478Z,43.42
2018-10-19T08:17:29.419Z,41.28
2018-10-19T08:19:56.404Z,48.68
2018-10-19T08:22:23.368Z,51.73
2018-10-19T08:24:51.304Z,48.47
2018-10-19T08:27:18.822Z,49.00
2018-10-19T08:29:45.756Z,52.08
2018-10-19T08:32:12.732Z,51.65
2018-10-19T08:34:39.649Z,51.67
2018-10-19T08:37:06.617Z,52.07
2018-10-19T08:39:33.547Z,49.10
2018-10-19T08:42:00.496Z,50.35
2018-10-19T08:44:27.469Z,48.73
2018-10-19T08:46:54.465Z,46.63
2018-10-19T08:49:21.362Z,47.90
2018-10-19T08:51:48.338Z,45.70
2018-10-19T08:54:15.279Z,44.83
2018-10-19T08:56:42.217Z,46.85
2018-10-19T08:59:09.252Z,46.18
2018-10-19T09:01:36.135Z,45.83
2018-10-19T09:04:03.251Z,44.25
2018-10-19T09:06:30.246Z,45.10
2018-10-19T09:08:57.229Z,43.55
2018-10-19T09:11:24.356Z,44.77
2018-10-19T09:13:51.231Z,43.48
2018-10-19T09:16:18.193Z,47.05
2018-10-19T09:18:45.164Z,44.83
2018-10-19T09:21:12.218Z,42.20
2018-10-19T09:23:39.106Z,42.58
2018-10-19T09:26:06.095Z,41.98
2018-10-19T09:28:33.514Z,45.95
2018-10-19T09:31:00.465Z,41.83
2018-10-19T09:33:27.448Z,43.87
2018-10-19T09:35:54.452Z,42.48
2018-10-19T09:38:21.354Z,42.78
2018-10-19T09:40:48.368Z,43.35
2018-10-19T09:43:15.386Z,42.87
2018-10-19T09:45:42.224Z,44.08
2018-10-19T09:48:09.175Z,43.28
2018-10-19T09:50:36.142Z,42.88
2018-10-19T09:53:03.234Z,41.73
2018-10-19T09:55:30.363Z,39.67
2018-10-19T09:57:57.330Z,40.98
2018-10-19T10:00:30.098Z,41.20
2018-10-19T10:02:57.068Z,42.50
2018-10-19T10:05:24.018Z,42.43
2018-10-19T10:07:50.990Z,41.85
2018-10-19T10:10:17.937Z,42.25
2018-10-19T10:12:44.922Z,42.78
2018-10-19T10:15:11.981Z,40.65
2018-10-19T10:17:38.827Z,40.83
2018-10-19T10:20:06.559Z,42.62
2018-10-19T10:22:33.529Z,42.48
2018-10-19T10:25:00.560Z,40.15
2018-10-19T10:27:27.462Z,41.58
2018-10-19T10:29:54.694Z,41.40
2018-10-19T10:32:21.717Z,41.63
2018-10-19T10:34:48.680Z,41.57
2018-10-19T10:37:15.655Z,41.70
2018-10-19T10:39:42.590Z,42.40
2018-10-19T10:42:09.569Z,40.83
2018-10-19T10:44:36.491Z,44.60
2018-10-19T10:47:03.573Z,42.13
2018-10-19T10:49:30.447Z,42.43
2018-10-19T10:51:57.414Z,42.05
2018-10-19T10:54:24.364Z,41.68
2018-10-19T10:56:51.345Z,41.37
2018-10-19T10:59:18.301Z,41.95
2018-10-19T11:01:45.241Z,41.13
2018-10-19T11:04:12.515Z,44.10
2018-10-19T11:06:39.334Z,41.97
2018-10-19T11:09:08.666Z,41.50
2018-10-19T11:11:35.643Z,41.57
2018-10-19T11:14:02.597Z,39.60
2018-10-19T11:16:29.545Z,41.20
2018-10-19T11:18:56.547Z,39.53
2018-10-19T11:21:23.500Z,40.67
2018-10-19T11:23:50.508Z,39.58
2018-10-19T11:26:17.446Z,39.33
2018-10-19T11:28:44.394Z,40.83
2018-10-19T11:31:11.849Z,39.90
2018-10-19T11:33:38.749Z,38.98
2018-10-19T11:36:05.677Z,39.38
2018-10-19T11:38:32.610Z,39.45
2018-10-19T11:40:59.567Z,39.95
2018-10-19T11:43:26.515Z,37.98
2018-10-19T11:45:53.463Z,39.50
2018-10-19T11:48:20.419Z,39.03
2018-10-19T11:50:47.365Z,40.08
2018-10-19T11:53:14.337Z,38.73
2018-10-19T11:55:41.330Z,40.17
2018-10-19T11:58:08.329Z,39.18
2018-10-19T12:00:35.213Z,39.27
2018-10-19T12:03:02.162Z,40.43
2018-10-19T12:05:29.120Z,40.25
2018-10-19T12:07:56.056Z,40.40
2018-10-19T12:10:23.031Z,41.88
2018-10-19T12:12:49.966Z,41.68
2018-10-19T12:15:17.277Z,42.35
2018-10-19T12:17:44.647Z,41.85
2018-10-19T12:20:13.122Z,40.48
2018-10-19T12:22:40.077Z,39.40
2018-10-19T12:25:08.265Z,40.98
2018-10-19T12:27:35.223Z,41.15
2018-10-19T12:30:02.174Z,42.13
2018-10-19T12:32:29.704Z,42.78
2018-10-19T12:34:56.650Z,43.15
2018-10-19T12:37:23.595Z,41.98
2018-10-19T12:39:50.563Z,40.33
2018-10-19T12:42:17.501Z,42.23
2018-10-19T12:44:44.446Z,42.23
2018-10-19T12:47:23.062Z,40.97
2018-10-19T12:49:49.981Z,41.33
2018-10-19T12:52:16.939Z,41.10
2018-10-19T12:54:43.912Z,41.33
2018-10-19T12:57:10.919Z,41.60
2018-10-19T12:59:37.870Z,39.85
2018-10-19T13:02:10.898Z,41.95
2018-10-19T13:04:37.834Z,40.95
2018-10-19T13:07:06.059Z,40.00
2018-10-19T13:09:33.010Z,38.98
2018-10-19T13:11:59.974Z,39.83
2018-10-19T13:14:26.954Z,39.63
2018-10-19T13:16:53.927Z,39.10
2018-10-19T13:19:20.882Z,39.98
2018-10-19T13:21:47.831Z,41.53
2018-10-19T13:24:14.849Z,39.20
2018-10-19T13:26:41.746Z,38.90
2018-10-19T13:29:08.692Z,42.00
2018-10-19T13:31:35.648Z,44.03
2018-10-19T13:34:03.092Z,41.35
2018-10-19T13:36:30.031Z,39.50
2018-10-19T13:38:57.033Z,39.95
2018-10-19T13:41:23.942Z,39.67
2018-10-19T13:43:50.894Z,40.15
2018-10-19T13:46:17.845Z,39.45
2018-10-19T13:48:44.786Z,40.25
2018-10-19T13:51:11.821Z,39.88
2018-10-19T13:53:38.701Z,40.88
2018-10-19T13:56:05.659Z,39.88
2018-10-19T13:58:32.654Z,40.50
2018-10-19T14:00:59.574Z,40.63
2018-10-19T14:03:26.519Z,40.20
2018-10-19T14:05:53.477Z,41.28
2018-10-19T14:08:20.458Z,41.65
2018-10-19T14:10:47.428Z,45.12
2018-10-19T14:13:14.393Z,46.80
2018-10-19T14:15:41.364Z,47.98
2018-10-19T14:18:08.308Z,49.20
2018-10-19T14:20:35.258Z,41.83
2018-10-19T14:23:02.249Z,43.48
2018-10-19T14:25:29.147Z,41.83
2018-10-19T14:27:56.087Z,39.25
2018-10-19T14:30:23.078Z,41.50
2018-10-19T14:32:50.030Z,40.43
2018-10-19T14:35:17.423Z,41.48
2018-10-19T14:37:45.023Z,41.45
2018-10-19T14:40:13.303Z,42.20
2018-10-19T14:42:40.962Z,43.70
2018-10-19T14:45:09.240Z,41.70
2018-10-19T14:47:36.932Z,38.90
2018-10-19T14:50:04.463Z,42.17
2018-10-19T14:52:31.458Z,40.73
2018-10-19T14:54:58.498Z,39.98
2018-10-19T14:57:25.461Z,38.45
2018-10-19T14:59:52.627Z,39.20
2018-10-19T15:02:20.213Z,40.73
2018-10-19T15:04:47.160Z,39.65
2018-10-19T15:07:14.106Z,40.03
2018-10-19T15:10:00.946Z,38.70
2018-10-19T15:13:07.016Z,41.08
2018-10-19T15:15:34.032Z,41.40
2018-10-19T15:18:01.001Z,40.25
2018-10-19T15:20:27.955Z,39.18
2018-10-19T15:22:54.938Z,40.17
2018-10-19T15:25:21.874Z,39.13
2018-10-19T15:27:48.897Z,43.55
2018-10-19T15:30:17.780Z,61.83
2018-10-19T15:32:44.627Z,41.90
2018-10-19T15:35:11.675Z,41.15
2018-10-19T15:37:39.742Z,41.58
2018-10-19T15:40:07.578Z,40.33
2018-10-19T15:42:34.564Z,40.28
2018-10-19T15:45:01.582Z,40.17
2018-10-19T15:47:30.798Z,39.92
2018-10-19T15:49:57.910Z,40.45
2018-10-19T15:52:25.001Z,40.63
2018-10-19T15:54:52.651Z,41.33
2018-10-19T15:57:19.973Z,40.98
2018-10-19T15:59:46.989Z,39.80
2018-10-19T16:02:14.505Z,48.13
2018-10-19T16:04:41.608Z,60.78
2018-10-19T16:07:08.618Z,48.42
2018-10-19T16:09:35.640Z,44.27
2018-10-19T16:12:02.738Z,106.83
2018-10-19T16:14:29.751Z,61.35
2018-10-19T16:16:56.724Z,48.63
2018-10-19T16:19:23.760Z,44.87
2018-10-19T16:21:50.811Z,44.13
2018-10-19T16:24:17.781Z,41.25
2018-10-19T16:26:44.853Z,41.02
2018-10-19T16:29:11.797Z,39.75
2018-10-19T16:31:38.892Z,40.05
2018-10-19T16:34:06.117Z,38.78
2018-10-19T16:36:33.073Z,39.57
2018-10-19T16:39:00.592Z,38.40
2018-10-19T16:41:28.035Z,40.58
2018-10-19T16:43:54.947Z,41.40
2018-10-19T16:46:22.059Z,41.65
2018-10-19T16:48:49.003Z,49.18
2018-10-19T16:51:16.118Z,42.40
2018-10-19T16:53:43.142Z,39.60
2018-10-19T16:56:10.254Z,41.20
2018-10-19T16:58:37.221Z,41.98
2018-10-19T17:01:04.288Z,42.10
2018-10-19T17:03:31.255Z,42.20
2018-10-19T17:05:58.207Z,42.27
2018-10-19T17:08:25.133Z,42.58
2018-10-19T17:10:52.457Z,43.73
2018-10-19T17:13:19.353Z,43.30
2018-10-19T17:15:46.298Z,43.45
2018-10-19T17:18:13.368Z,43.13
2018-10-19T17:20:40.286Z,42.55
2018-10-19T17:23:07.233Z,42.85
2018-10-19T17:25:34.394Z,42.25
2018-10-19T17:28:01.338Z,41.98
2018-10-19T17:30:28.290Z,44.65
2018-10-19T17:32:55.295Z,42.00
2018-10-19T17:35:22.151Z,43.50
2018-10-19T17:37:49.094Z,44.40
2018-10-19T17:40:16.634Z,41.28
2018-10-19T17:42:43.581Z,48.17
2018-10-19T17:45:10.592Z,55.07
2018-10-19T17:47:37.493Z,51.57
2018-10-19T17:50:04.526Z,47.40
2018-10-19T17:52:31.491Z,43.98
2018-10-19T17:54:58.471Z,44.95
2018-10-19T17:57:25.433Z,45.35
2018-10-19T17:59:52.582Z,44.60
2018-10-19T18:02:19.528Z,45.45
2018-10-19T18:04:46.502Z,50.70
2018-10-19T18:07:13.442Z,47.80
2018-10-19T18:09:40.426Z,46.33
2018-10-19T18:12:07.326Z,46.80
2018-10-19T18:14:34.273Z,50.30
2018-10-19T18:17:01.255Z,51.30
2018-10-19T18:19:28.361Z,49.95
2018-10-19T18:21:55.483Z,50.50
2018-10-19T18:24:22.488Z,47.05
2018-10-19T18:26:49.434Z,46.00
2018-10-19T18:29:16.401Z,45.12
2018-10-19T18:31:43.351Z,45.83
2018-10-19T18:34:10.301Z,47.98
2018-10-19T18:36:37.759Z,44.98
2018-10-19T18:39:07.615Z,47.70
2018-10-19T18:41:35.092Z,52.45
2018-10-19T18:44:02.085Z,49.35
2018-10-19T18:46:28.986Z,46.20
2018-10-19T18:48:55.942Z,56.42
2018-10-19T18:51:22.886Z,49.88
2018-10-19T18:53:49.850Z,49.30
2018-10-19T18:56:16.889Z,49.65
2018-10-19T18:58:43.738Z,45.98
2018-10-19T19:01:10.702Z,49.65
2018-10-19T19:03:37.659Z,49.27
2018-10-19T19:06:04.606Z,51.33
2018-10-19T19:08:31.562Z,53.07
2018-10-19T19:10:58.518Z,55.35
2018-10-19T19:13:30.691Z,53.17
2018-10-19T19:15:58.002Z,49.88
2018-10-19T19:18:25.002Z,48.23
2018-10-19T19:20:51.992Z,48.10
2018-10-19T19:23:19.034Z,49.20
2018-10-19T19:25:51.871Z,48.17
2018-10-19T19:28:18.810Z,53.38
2018-10-19T19:30:45.790Z,47.10
2018-10-19T19:33:18.602Z,47.90
2018-10-19T19:35:45.538Z,46.75
2018-10-19T19:38:12.542Z,45.70
2018-10-19T19:40:45.274Z,45.45
2018-10-19T19:43:12.862Z,45.43
2018-10-19T19:45:39.815Z,46.47
2018-10-19T19:48:12.454Z,46.00
2018-10-19T19:50:39.389Z,46.25
2018-10-19T19:53:06.374Z,47.70
2018-10-19T19:55:33.275Z,48.13
2018-10-19T19:58:00.350Z,47.58
2018-10-19T20:00:27.362Z,48.23
2018-10-19T20:02:54.302Z,53.75
2018-10-19T20:05:21.223Z,51.40
2018-10-19T20:07:48.191Z,50.40
2018-10-19T20:10:15.306Z,47.83
2018-10-19T20:12:42.250Z,47.00
2018-10-19T20:15:09.773Z,49.65
2018-10-19T20:17:36.720Z,51.23
2018-10-19T20:20:04.918Z,53.63
2018-10-19T20:22:31.830Z,52.62
2018-10-19T20:24:58.755Z,50.87
2018-10-19T20:27:25.685Z,49.43
2018-10-19T20:29:52.638Z,49.77
2018-10-19T20:32:19.684Z,47.75
2018-10-19T20:34:46.535Z,46.90
2018-10-19T20:37:13.502Z,47.25
2018-10-19T20:39:40.453Z,49.60
2018-10-19T20:42:07.391Z,46.63
2018-10-19T20:44:34.804Z,48.47
2018-10-19T20:47:01.800Z,47.33
2018-10-19T20:49:28.746Z,47.90
2018-10-19T20:51:55.678Z,49.20
2018-10-19T20:54:22.617Z,49.42
2018-10-19T20:56:49.754Z,46.42
2018-10-19T20:59:16.849Z,46.53
2018-10-19T21:01:43.658Z,46.00
2018-10-19T21:04:10.621Z,46.98
2018-10-19T21:06:37.563Z,45.57
2018-10-19T21:09:07.124Z,45.25
2018-10-19T21:11:34.375Z,46.80
2018-10-19T21:14:01.452Z,46.23
2018-10-19T21:16:28.337Z,49.42
2018-10-19T21:18:55.355Z,50.78
2018-10-19T21:21:22.367Z,52.03
2018-10-19T21:23:49.349Z,51.35
2018-10-19T21:26:16.500Z,50.25
2018-10-19T21:28:43.356Z,49.48
2018-10-19T21:31:10.325Z,49.70
2018-10-19T21:33:37.342Z,49.27
2018-10-19T21:36:04.399Z,49.35
2018-10-19T21:38:31.379Z,49.80
2018-10-19T21:40:58.372Z,49.42
2018-10-19T21:43:25.378Z,48.90
2018-10-19T21:45:52.919Z,48.02
2018-10-19T21:48:19.876Z,46.60
2018-10-19T21:50:46.851Z,45.45
2018-10-19T21:53:13.899Z,47.20
2018-10-19T21:55:40.809Z,47.13
2018-10-19T21:58:07.778Z,47.53
2018-10-19T22:00:34.722Z,45.87
2018-10-19T22:03:01.862Z,45.28
2018-10-19T22:05:28.796Z,46.63
2018-10-19T22:07:55.774Z,48.38
2018-10-19T22:10:22.682Z,48.35
2018-10-19T22:12:50.523Z,49.03
2018-10-19T22:15:17.692Z,49.03
2018-10-19T22:17:44.732Z,48.48
2018-10-19T22:20:11.697Z,47.15
2018-10-19T22:22:38.753Z,46.37
2018-10-19T22:25:05.753Z,48.42
2018-10-19T22:27:32.756Z,51.02
2018-10-19T22:29:59.702Z,51.70
2018-10-19T22:32:26.780Z,53.43
2018-10-19T22:34:53.785Z,53.63
2018-10-19T22:37:20.859Z,50.52
2018-10-19T22:39:47.815Z,51.45
2018-10-19T22:42:14.802Z,52.93
2018-10-19T22:44:41.751Z,51.90
2018-10-19T22:47:09.199Z,52.62
2018-10-19T22:49:36.172Z,51.65
2018-10-19T22:52:03.144Z,52.70
2018-10-19T22:54:30.089Z,52.80
2018-10-19T22:56:57.083Z,52.17
2018-10-19T22:59:24.019Z,52.08
2018-10-19T23:01:50.961Z,53.17
2018-10-19T23:04:17.936Z,51.33
2018-10-19T23:06:45.023Z,51.45
2018-10-19T23:09:11.980Z,50.12
2018-10-19T23:11:38.928Z,47.77
2018-10-19T23:14:06.259Z,49.75
2018-10-19T23:16:33.540Z,49.35
2018-10-19T23:19:00.736Z,51.77
2018-10-19T23:21:27.678Z,53.15
2018-10-19T23:23:54.687Z,51.47
2018-10-19T23:26:21.696Z,51.80
2018-10-19T23:28:48.692Z,51.73
2018-10-19T23:31:15.684Z,51.25
2018-10-19T23:33:43.048Z,54.53
2018-10-19T23:36:09.983Z,53.08
2018-10-19T23:38:36.936Z,55.52
2018-10-19T23:41:03.925Z,53.38
2018-10-19T23:43:30.875Z,54.40
2018-10-19T23:45:57.829Z,55.63
2018-10-19T23:48:25.349Z,56.30
2018-10-19T23:50:52.308Z,55.15
2018-10-19T23:53:19.263Z,52.60
2018-10-19T23:55:46.227Z,52.38
2018-10-19T23:58:13.182Z,51.23
